Latest Weather Observations for Blackwater Airport

IDQ60801

Issued at 7:35 pm EST Friday 18 April 2014 (issued every 30 minutes, with the page automatically refreshed every 10 minutes)

About weather observations | Map of weather stations | Latest weather observations for QLD | Other Formats
Station Details ID: 035134 Name: BLACKWATER AIRPORT Lat: -23.60 Lon: 148.81 Height: 192.95 m
Data from the previous 72 hours. | See also: Recent months at Blackwater Airport
Date/Time
EST
Temp
°C
App
Temp
°C
Dew
Point
Rel
Hum
%
Delta-T
°C
Wind Press
QNH
hPa
Press
MSL
hPa
Rain
since 9 am
mm
Dir
 
Spd
km/h
Gust
km/h
Spd
kts
Gust
kts
18/07:30pm 21.9 20.3 10.1 47 6.5 ESE 9 13 5 7 1016.4 - 0.0
18/07:00pm 20.7 19.3 9.6 49 6.0 SSE 7 11 4 6 1016.1 - 0.0
18/06:30pm 24.0 21.1 9.6 40 7.9 S 15 19 8 10 1015.7 - 0.0
18/06:00pm 24.1 21.4 8.9 38 8.2 SSW 13 15 7 8 1015.3 1014.3 0.0
18/05:30pm 27.1 24.2 9.5 33 9.8 SSW 15 17 8 9 1014.9 - 0.0
18/05:00pm 28.6 25.1 8.8 29 11.0 SSW 17 20 9 11 1014.6 - 0.0
18/04:30pm 29.1 25.2 8.7 28 11.3 S 19 24 10 13 1014.2 - 0.0
18/04:00pm 29.7 26.1 9.8 29 11.3 S 19 28 10 15 1013.9 - 0.0
18/03:30pm 29.9 26.9 9.4 28 11.6 WSW 15 26 8 14 1013.6 - 0.0
18/03:00pm 29.7 27.0 10.3 30 11.1 W 15 22 8 12 1013.7 1012.8 0.0
18/02:30pm 28.4 27.5 11.5 35 9.8 W 7 13 4 7 1014.1 - 0.0
18/02:00pm 28.2 27.6 11.7 36 9.6 SSW 6 7 3 4 1014.5 - 0.0
18/01:30pm 29.5 28.7 12.9 36 9.9 W 9 13 5 7 1014.8 - 0.0
18/01:00pm 28.9 27.8 13.2 38 9.4 N 11 17 6 9 1015.1 - 0.0
18/12:30pm 27.0 27.4 13.7 44 7.9 NNE 4 9 2 5 1015.5 - 0.0
18/12:00pm 27.6 27.6 14.3 44 8.0 S 7 13 4 7 1016.0 1015.0 0.0
18/11:30am 27.6 27.3 14.3 44 8.0 ENE 9 19 5 10 1016.5 - 0.0
18/11:00am 27.3 26.7 13.6 43 8.2 NE 9 13 5 7 1017.0 - 0.0
18/10:30am 27.5 27.4 13.8 43 8.2 N 7 15 4 8 1017.6 - 0.0
18/10:00am 25.7 26.5 16.3 56 5.8 NW 7 11 4 6 1017.9 - 0.0
18/09:30am 24.7 25.4 16.2 59 5.2 W 7 11 4 6 1018.1 - 0.0
18/09:00am 25.0 26.1 16.7 60 5.1 NE 6 9 3 5 1018.2 1017.3 0.0
18/08:30am 23.8 24.3 15.6 60 5.0 SSE 7 9 4 5 1018.2 - 0.0
18/08:00am 21.9 22.7 16.4 71 3.4 S 7 11 4 6 1018.0 - 0.0
18/07:30am 19.9 21.0 17.1 84 1.7 S 7 9 4 5 1017.8 - 0.0
18/07:00am 18.1 18.8 17.1 94 0.6 S 9 11 5 6 1017.7 - 0.0
18/06:30am 17.5 17.7 16.7 95 0.5 S 11 13 6 7 1017.4 - 0.0
18/06:00am 17.4 18.3 16.1 92 0.8 S 6 7 3 4 1017.3 1016.4 0.0
18/05:30am 17.9 18.4 16.6 92 0.8 SSE 9 11 5 6 1017.2 - 0.0
18/05:00am 18.4 18.7 16.9 91 0.9 S 11 13 6 7 1016.9 - 0.0
18/04:30am 18.5 18.5 17.3 93 0.7 SSE 13 15 7 8 1017.0 - 0.0
18/04:00am 18.1 19.1 16.8 92 0.8 S 7 9 4 5 1017.0 - 0.0
18/03:30am 18.2 18.8 16.7 91 0.9 S 9 9 5 5 1016.9 - 0.0
18/03:00am 18.8 19.8 16.9 89 1.2 S 7 9 4 5 1017.0 1016.1 0.0
18/02:30am 20.1 21.6 18.0 88 1.3 SE 7 9 4 5 1017.0 - 0.0
18/02:00am 19.9 21.3 17.9 88 1.2 ESE 7 11 4 6 1017.1 - 0.0
18/01:30am 19.9 21.0 18.0 89 1.2 E 9 13 5 7 1017.2 - 0.0
18/01:00am 19.9 21.0 17.9 88 1.2 E 9 11 5 6 1017.4 - 0.0
18/12:30am 20.0 21.1 18.0 88 1.2 ENE 9 13 5 7 1017.6 - 0.0
18/12:00am 20.3 21.1 18.2 88 1.3 ENE 11 15 6 8 1017.7 1016.8 0.0
 
Date/Time
EST
Temp
°C
App
Temp
°C
Dew
Point
Rel
Hum
%
Delta-T
°C
Wind Press
QNH
hPa
Press
MSL
hPa
Rain
since 9 am
mm
Dir
 
Spd
km/h
Gust
km/h
Spd
kts
Gust
kts
17/11:30pm 20.0 20.6 17.6 86 1.5 NE 11 13 6 7 1017.7 - 0.0
17/11:00pm 20.7 21.8 17.9 84 1.7 ENE 9 13 5 7 1017.7 - 0.0
17/10:30pm 21.1 21.9 18.1 83 1.9 NE 11 13 6 7 1017.4 - 0.0
17/10:00pm 22.0 22.5 18.4 80 2.3 NE 13 19 7 10 1017.2 - 0.0
17/09:30pm 22.2 22.2 17.1 73 3.2 NE 13 17 7 9 1017.0 - 0.0
17/09:00pm 22.4 22.6 16.7 70 3.5 E 11 13 6 7 1016.7 1015.8 0.0
17/08:30pm 22.6 22.9 17.1 71 3.4 ENE 11 13 6 7 1016.6 - 0.0
17/08:00pm 22.3 23.0 17.0 72 3.3 NE 9 11 5 6 1016.4 - 0.0
17/07:30pm 22.5 23.0 16.5 69 3.7 NE 9 13 5 7 1016.2 - 0.0
17/07:00pm 23.4 23.8 16.4 64 4.3 NNE 9 13 5 7 1015.9 - 0.0
17/06:30pm 25.0 24.9 15.9 57 5.6 NNE 11 17 6 9 1015.3 - 0.0
17/06:00pm 26.8 26.7 16.1 52 6.6 E 11 13 6 7 1015.1 1014.1 0.0
17/05:30pm 27.8 28.5 15.5 47 7.6 E 6 7 3 4 1014.7 - 0.0
17/05:00pm 27.9 28.0 15.5 46 7.6 N 9 11 5 6 1014.2 - 0.0
17/04:30pm 28.8 28.1 14.2 40 8.8 N 11 15 6 8 1014.0 - 0.0
17/04:00pm 29.7 29.4 15.4 42 8.9 N 11 17 6 9 1013.9 - 0.0
17/03:30pm 28.6 28.8 14.8 43 8.4 E 7 9 4 5 1014.0 - 0.0
17/03:00pm 29.2 28.7 15.0 42 8.7 NE 11 19 6 10 1014.0 1013.1 0.0
17/02:30pm 29.6 29.2 15.3 41 8.8 ENE 11 19 6 10 1014.2 - 0.0
17/02:00pm 29.2 29.5 17.1 48 7.7 E 11 17 6 9 1014.7 - 0.0
17/01:30pm 27.1 25.6 16.4 52 6.7 ESE 19 26 10 14 1015.2 - 0.0
17/01:00pm 26.5 26.7 16.7 55 6.1 S 11 19 6 10 1015.7 - 0.0
17/12:30pm 27.9 27.2 15.5 46 7.6 N 13 24 7 13 1016.0 - 0.0
17/12:00pm 27.8 27.3 15.8 48 7.4 N 13 24 7 13 1016.7 1015.8 0.0
17/11:30am 27.4 27.8 18.1 57 5.9 N 13 20 7 11 1017.3 - 0.0
17/11:00am 28.0 28.1 16.6 50 7.1 N 11 20 6 11 1017.9 - 0.0
17/10:30am 26.1 27.1 16.9 57 5.8 N 7 13 4 7 1018.2 - 0.0
17/10:00am 26.7 27.7 17.7 57 5.7 NNE 9 15 5 8 1018.4 - 0.0
17/09:30am 25.5 27.2 18.4 65 4.5 NNW 7 17 4 9 1018.4 - 0.0
17/09:00am 24.2 25.3 18.8 72 3.4 N 11 17 6 9 1018.4 1017.5 0.0
17/08:30am 23.9 25.9 18.8 73 3.3 NNW 6 9 3 5 1018.2 - 0.0
17/08:00am 23.5 26.6 19.4 78 2.6 E 2 7 1 4 1018.1 - 0.0
17/07:30am 22.1 24.7 20.0 88 1.4 E 6 7 3 4 1017.9 - 0.0
17/07:00am 19.7 22.0 18.5 93 0.8 SSE 4 7 2 4 1017.6 - 0.0
17/06:30am 18.9 20.4 17.7 93 0.7 E 6 7 3 4 1017.3 - 0.0
17/06:00am 19.3 20.9 18.3 94 0.6 E 7 9 4 5 1017.0 1016.1 0.0
17/05:30am 19.1 20.7 17.8 92 0.8 S 6 7 3 4 1016.8 - 0.0
17/05:00am 19.6 22.5 18.1 91 0.9 CALM 0 0 0 0 1016.7 - 0.0
17/04:30am 20.1 22.6 18.2 89 1.2 NE 2 6 1 3 1016.6 - 0.0
17/04:00am 20.6 22.5 18.5 88 1.3 NE 6 11 3 6 1016.3 - 0.0
17/03:30am 20.7 22.2 19.0 90 1.1 ENE 9 13 5 7 1016.2 - 0.0
17/03:00am 20.7 21.7 18.6 88 1.3 ENE 11 15 6 8 1016.0 1015.0 0.0
17/02:30am 20.8 22.1 18.4 86 1.5 ENE 9 11 5 6 1016.1 - 0.0
17/02:00am 20.6 21.4 18.2 86 1.5 ENE 11 15 6 8 1016.0 - 0.0
17/01:30am 20.5 21.0 18.3 87 1.4 ENE 13 17 7 9 1016.0 - 0.0
17/01:00am 20.7 22.0 18.5 87 1.4 NE 9 11 5 6 1016.2 - 0.0
17/12:30am 20.7 21.2 17.5 82 2.0 ENE 11 17 6 9 1016.2 - 0.0
17/12:00am 20.9 20.2 16.5 76 2.7 ENE 15 19 8 10 1016.3 1015.3 0.0
 
Date/Time
EST
Temp
°C
App
Temp
°C
Dew
Point
Rel
Hum
%
Delta-T
°C
Wind Press
QNH
hPa
Press
MSL
hPa
Rain
since 9 am
mm
Dir
 
Spd
km/h
Gust
km/h
Spd
kts
Gust
kts
16/11:30pm 21.0 20.5 16.0 73 3.0 NE 13 20 7 11 1016.1 - 0.0
16/11:00pm 21.7 20.8 15.8 69 3.6 ENE 15 19 8 10 1016.2 - 0.0
16/10:30pm 22.9 21.1 16.0 65 4.2 ENE 20 28 11 15 1016.2 - 0.0
16/10:00pm 23.3 20.9 16.4 65 4.2 ENE 24 35 13 19 1016.0 - 0.0
16/09:30pm 22.5 22.4 17.0 71 3.4 E 13 15 7 8 1015.5 - 0.0
16/09:00pm 22.0 22.8 15.8 68 3.8 E 6 7 3 4 1015.2 1014.2 0.0
16/08:30pm 22.6 23.8 15.0 62 4.6 E 2 6 1 3 1015.1 - 0.0
16/08:00pm 23.5 23.5 15.3 60 5.0 ESE 9 11 5 6 1014.7 - 0.0
16/07:30pm 23.6 22.8 14.0 55 5.7 E 11 13 6 7 1014.4 - 0.0
16/07:00pm 24.4 24.3 13.9 52 6.2 SE 7 9 4 5 1013.9 - 0.0
16/06:30pm 25.9 25.7 13.7 47 7.2 SE 7 9 4 5 1013.6 - 0.0
16/06:00pm 27.0 26.6 14.1 45 7.7 ESE 9 13 5 7 1013.4 1012.5 0.0
16/05:30pm 28.8 27.9 12.7 37 9.5 SE 9 11 5 6 1013.2 - 0.0
16/05:00pm 29.7 28.8 12.6 35 10.1 SSW 9 13 5 7 1013.0 - 0.0
16/04:30pm 29.3 28.2 11.8 34 10.2 S 9 15 5 8 1012.8 - 0.0
16/04:00pm 29.7 28.6 13.0 35 10.0 SE 11 17 6 9 1012.8 - 0.0
16/03:30pm 29.7 29.1 13.5 37 9.7 WSW 9 15 5 8 1012.8 - 0.0
16/03:00pm 30.1 30.4 16.1 42 8.8 NNE 9 13 5 7 1012.9 1012.0 0.0
16/02:30pm 29.4 29.5 15.5 43 8.6 NW 9 19 5 10 1013.2 - 0.0
16/02:00pm 30.0 30.7 17.1 46 8.2 NNW 9 15 5 8 1013.6 - 0.0
16/01:30pm 29.3 29.0 16.5 46 8.0 NNW 13 20 7 11 1013.9 - 0.0
16/01:00pm 28.2 27.9 16.5 49 7.3 NW 13 19 7 10 1014.4 - 0.0
16/12:30pm 27.4 28.0 16.7 52 6.7 NW 9 17 5 9 1014.8 - 0.0
16/12:00pm 28.0 28.6 16.9 51 7.0 NNW 9 19 5 10 1015.4 1014.4 0.0
16/11:30am 26.6 26.6 16.2 52 6.4 NE 11 17 6 9 1016.0 - 0.0
16/11:00am 27.1 27.5 17.3 55 6.2 NNE 11 17 6 9 1016.3 - 0.0
16/10:30am 26.1 26.5 17.2 58 5.6 NNE 11 20 6 11 1016.8 - 0.0
16/10:00am 25.6 25.6 17.3 60 5.2 NNE 13 20 7 11 1017.2 - 0.0
16/09:30am 24.6 24.6 17.3 64 4.6 NNE 13 22 7 12 1017.4 - 0.0
16/09:00am 24.0 24.5 17.5 67 4.1 NE 11 17 6 9 1017.4 1016.5 0.0
16/08:30am 23.5 24.5 17.7 70 3.6 NNE 9 17 5 9 1017.3 - 0.0
16/08:00am 22.6 23.3 17.9 75 2.9 ENE 11 13 6 7 1017.1 - 0.0
16/07:30am 21.7 22.8 18.1 80 2.3 ENE 9 11 5 6 1016.8 - 0.0
16/07:00am 19.9 21.3 17.7 87 1.4 E 7 9 4 5 1016.6 - 0.0
16/06:30am 18.3 19.4 16.5 89 1.1 ENE 6 7 3 4 1016.4 - 0.0
16/06:00am 18.2 19.0 16.4 89 1.1 ENE 7 11 4 6 1015.8 1014.8 0.0
16/05:30am 18.4 19.3 16.6 89 1.1 E 7 9 4 5 1015.8 - 0.0
16/05:00am 18.7 21.0 16.7 88 1.2 CALM 0 0 0 0 1015.6 - 0.0
16/04:30am 18.9 20.0 16.5 86 1.5 NE 6 7 3 4 1015.3 - 0.0
16/04:00am 19.6 19.7 16.6 83 1.8 ENE 11 13 6 7 1014.9 - 0.0
16/03:30am 20.2 20.6 17.2 83 1.8 E 11 15 6 8 1014.9 - 0.0
16/03:00am 19.8 20.0 17.6 87 1.4 E 13 17 7 9 1014.7 1013.7 0.0
16/02:30am 19.4 20.4 17.7 90 1.1 E 9 11 5 6 1015.0 - 0.0
16/02:00am 19.3 20.5 17.4 89 1.2 ENE 7 11 4 6 1015.0 - 0.0
16/01:30am 19.5 20.0 17.5 88 1.2 NE 11 13 6 7 1015.1 - 0.0
16/01:00am 20.4 21.2 18.2 87 1.4 NNE 11 13 6 7 1015.5 - 0.0
16/12:30am 20.0 20.5 17.4 85 1.6 NNE 11 13 6 7 1015.6 - 0.0
16/12:00am 21.3 22.7 17.7 80 2.2 ENE 7 9 4 5 1015.7 1014.7 0.0
 
Date/Time
EST
Temp
°C
App
Temp
°C
Dew
Point
Rel
Hum
%
Delta-T
°C
Wind Press
QNH
hPa
Press
MSL
hPa
Rain
since 9 am
mm
Dir
 
Spd
km/h
Gust
km/h
Spd
kts
Gust
kts
15/11:30pm 21.5 23.2 18.1 81 2.1 NNE 6 7 3 4 1015.7 - 0.0
15/11:00pm 21.4 23.1 18.0 81 2.1 NNE 6 7 3 4 1015.8 - 0.0
15/10:30pm 21.7 22.6 17.5 77 2.6 E 9 11 5 6 1015.9 - 0.0
15/10:00pm 21.9 22.9 17.7 77 2.6 ESE 9 13 5 7 1015.9 - 0.0
15/09:30pm 20.8 21.2 17.2 80 2.2 ENE 11 13 6 7 1015.3 - 0.0
15/09:00pm 21.6 21.5 17.0 75 2.8 ENE 13 17 7 9 1015.1 1014.1 0.0
15/08:30pm 22.2 21.9 17.3 74 3.0 E 15 17 8 9 1014.9 - 0.0
15/08:00pm 22.1 22.4 17.0 73 3.1 ENE 11 13 6 7 1014.7 - 0.0

Other Formats:

Comma delimited format used in spreadsheet applications
http://www.bom.gov.au/fwo/IDQ60801/IDQ60801.94398.axf

JavaScript Object Notation format (JSON) in row-major order
http://www.bom.gov.au/fwo/IDQ60801/IDQ60801.94398.json